Terminal Aerodrome Forecast
Issued by NWS

Current Version | Previous Version | Text Only | Print | Product List | Glossary Off
Versions: 1 2 3 4 5 6 7 8 9 10 11 12 13 14 15 16 17 18 19 20 21 22 23 24

000
FTUS41 KILN 270823 AAA
TAFLUK
TAF AMD
KLUK 270823Z 2708/2806 00000KT 1SM BR SCT150 BKN250
      TEMPO 2708/2711 1/4SM FG VV002
     FM271100 00000KT 3SM BR SCT150 BKN250
     FM271300 20004KT P6SM VCSH SCT040 BKN150
     FM271500 20007KT P6SM SCT040 BKN250
     FM280100 00000KT P6SM BKN150
     FM280500 00000KT 5SM BR BKN150=

USA.gov is the U.S. government's official web portal to all federal, state and local government web resources and services.